Dudley J. Settoon — WDD4745 — position and weather

sailwx.info

Track history (hours):
 
Tides and Currents Weather Stations Pressure Air Temp Water Temp Dewpoint Dewpoint Depression Visibility Wind Speed Wind Dir Waves Ship Positions

Dudley J. Settoon

Owner: Settoon Towing, LLC, Gibson, LA. More information available from US FCC via Universal Licensing System and Coast Guard Vessel Documentation Center.

Last reported at 2018-May-31 18:00 UTC. Time now 2018-Jul-20 06:50 UTC.
Position N 29°35' W 090°43'.
Warning: this ship's position is 49 days out of date.

Length 30 m; draft 5 m.

Type: Towing. MMSI: 366994890.

Date/timePositionNaut miles runAvg speedWind from/ knotsBaromVisibWave heightAir tempDewpointWater temp
2018-May-31 18:00N 29°35' W 090°43'0 0.0
2018-May-31 17:31N 29°35' W 090°43'0 0.0
2018-May-31 17:01N 29°35' W 090°43'0 0.0
2018-May-31 16:30N 29°35' W 090°43'0 0.0
2018-May-31 16:00N 29°35' W 090°43'0 0.0
2018-May-31 15:30N 29°35' W 090°43'0 0.0
2018-May-31 15:00N 29°35' W 090°43'0 0.0
2018-May-31 14:30N 29°35' W 090°43'0 0.0
2018-May-31 14:00N 29°35' W 090°43'0 0.0
2018-May-31 13:30N 29°35' W 090°43'0 0.0
2018-May-31 13:00N 29°35' W 090°43'0 0.0
2018-May-31 12:30N 29°35' W 090°43'0 0.0
2018-May-31 12:00N 29°35' W 090°43'0 0.2
2018-May-31 11:29N 29°35' W 090°43'0 0.0
2018-May-31 11:00N 29°35' W 090°43'0 0.0
2018-May-31 10:28N 29°35' W 090°43'0 0.0
2018-May-31 10:00N 29°35' W 090°43'0 0.0
2018-May-31 09:30N 29°35' W 090°43'0 0.0
2018-May-31 08:59N 29°35' W 090°43'0 0.0
2018-May-31 08:30N 29°35' W 090°43'0 0.0
2018-May-31 08:00N 29°35' W 090°43'0 0.0
2018-May-31 07:30N 29°35' W 090°43'0 0.0
2018-May-31 07:00N 29°35' W 090°43'0 0.0
2018-May-31 06:30N 29°35' W 090°43'0 0.0
2018-May-31 06:00N 29°35' W 090°43'0 0.0
2018-May-31 05:30N 29°35' W 090°43'0 0.0
2018-May-31 04:57N 29°35' W 090°43'0 0.0
2018-May-31 04:30N 29°35' W 090°43'0 0.0
2018-May-31 04:00N 29°35' W 090°43'0 0.0
2018-May-31 03:29N 29°35' W 090°43'0 0.0
2018-May-31 03:00N 29°35' W 090°43'0 0.0
2018-May-31 02:27N 29°35' W 090°43'0 0.0
2018-May-31 02:00N 29°35' W 090°43'2 3.4
2018-May-31 01:30N 29°37' W 090°43'2 4.9
2018-May-31 01:00N 29°36' W 090°40'3 5.6
2018-May-31 00:30N 29°35' W 090°37'3 5.5
2018-May-31 00:00N 29°34' W 090°34'3 5.6
2018-May-30 23:27N 29°34' W 090°30'5 0.2
2018-May-30 01:31N 29°33' W 090°24'0 0.2
2018-May-30 01:27N 29°33' W 090°24'1 2.5
2018-May-30 00:59N 29°33' W 090°26'3 7.2
2018-May-30 00:30N 29°34' W 090°30'4 7.0
2018-May-30 00:00N 29°34' W 090°34'3 6.6
2018-May-29 23:30N 29°35' W 090°37'3 5.7
2018-May-29 23:00N 29°36' W 090°40'2 4.4
2018-May-29 22:30N 29°36' W 090°43'2 3.5
2018-May-29 22:00N 29°34' W 090°43'3 6.0
2018-May-29 21:30N 29°32' W 090°46'3 6.2
2018-May-29 20:59N 29°32' W 090°50'11 0.8
2018-May-29 07:34N 29°37' W 091°01'0 5.9
2018-May-29 07:30N 29°37' W 091°01'5 5.8
2018-May-29 06:41N 29°34' W 090°57'2 6.3
2018-May-29 06:21N 29°33' W 090°55'2 6.2
2018-May-29 05:58N 29°32' W 090°52'3 6.1
2018-May-29 05:30N 29°32' W 090°49'2 3.4
2018-May-29 05:00N 29°31' W 090°47'4 3.7
2018-May-29 03:58N 29°27' W 090°49'2 4.1
2018-May-29 03:29N 29°26' W 090°50'7 3.9
2018-May-29 01:45N 29°22' W 090°57'3 0.6
2018-May-28 21:39N 29°23' W 090°54'0 0.0
2018-May-28 21:29N 29°23' W 090°54'2 3.1
2018-May-28 20:58N 29°24' W 090°52'2 3.1
2018-May-28 20:29N 29°24' W 090°51'1 1.2
2018-May-28 19:59N 29°25' W 090°50'2 3.9
2018-May-28 19:30N 29°27' W 090°50'4 4.3
2018-May-28 18:40N 29°30' W 090°48'1 4.2
2018-May-28 18:30N 29°30' W 090°48'2 3.6
2018-May-28 18:00N 29°32' W 090°48'61 1.4
2018-May-26 21:43N 29°51' W 091°55'1 6.2
2018-May-26 21:30N 29°51' W 091°56'3 5.9
2018-May-26 21:00N 29°50' W 091°60'0 0.1
2018-May-26 20:30N 29°50' W 091°59'0 0.0
2018-May-26 20:00N 29°50' W 091°59'0 0.0
2018-May-26 19:30N 29°50' W 091°59'0 0.0
2018-May-26 19:00N 29°50' W 091°59'0 0.0
2018-May-26 18:30N 29°50' W 091°59'0 0.0
2018-May-26 18:00N 29°50' W 091°59'0 0.0
2018-May-26 17:30N 29°50' W 091°59'0 0.0
2018-May-26 17:00N 29°50' W 091°59'0 0.0
2018-May-26 16:31N 29°50' W 091°59'0 0.0
2018-May-26 16:01N 29°50' W 091°59'0 0.0
2018-May-26 15:31N 29°50' W 091°59'0 0.0
2018-May-26 15:01N 29°50' W 091°59'0 0.0
2018-May-26 14:31N 29°50' W 091°59'0 0.0
2018-May-26 14:00N 29°50' W 091°59'0 0.0
2018-May-26 13:30N 29°50' W 091°59'0 0.0
2018-May-26 13:00N 29°50' W 091°59'0 0.0
2018-May-26 12:31N 29°50' W 091°59'0 0.0
2018-May-26 12:01N 29°50' W 091°59'0 0.0
2018-May-26 11:30N 29°50' W 091°59'0 0.0
2018-May-26 11:01N 29°50' W 091°59'0 0.0
2018-May-26 10:30N 29°50' W 091°59'0 0.0
2018-May-26 10:00N 29°50' W 091°59'0 0.0
2018-May-26 09:31N 29°50' W 091°59'0 0.0
2018-May-26 09:00N 29°50' W 091°59'0 0.0
2018-May-26 08:30N 29°50' W 091°59'0 0.0
2018-May-26 08:01N 29°50' W 091°59'0 0.0
2018-May-26 07:30N 29°50' W 091°59'0 0.0
2018-May-26 07:00N 29°50' W 091°59'0 0.0
2018-May-26 06:30N 29°50' W 091°59'0 0.0
2018-May-26 05:30N 29°50' W 091°59'0 0.0
2018-May-26 05:00N 29°50' W 091°59'0 0.0
2018-May-26 04:30N 29°50' W 091°59'0 0.0
2018-May-26 04:00N 29°50' W 091°59'0 0.0
2018-May-26 03:31N 29°50' W 091°59'0 0.0
2018-May-26 03:01N 29°50' W 091°59'0 0.0
2018-May-26 02:30N 29°50' W 091°59'0 0.0
2018-May-26 02:00N 29°50' W 091°59'0 0.0
2018-May-26 01:30N 29°50' W 091°59'0 0.0
2018-May-26 01:01N 29°50' W 091°59'0 0.0
2018-May-26 00:31N 29°50' W 091°59'0 0.9
2018-May-26 00:00N 29°50' W 091°59'  
2018-May-23 04:01N 29°36' W 090°58'0 5.9
2018-May-23 03:59N 29°36' W 090°58'3 5.7
2018-May-23 03:29N 29°34' W 090°56'3 6.0
2018-May-23 03:00N 29°32' W 090°53'3 5.7
2018-May-23 02:31N 29°32' W 090°50'3 5.9
2018-May-23 02:00N 29°32' W 090°46'3 5.3
2018-May-23 01:30N 29°34' W 090°44'1 2.5
2018-May-23 01:00N 29°35' W 090°43'1 2.5
2018-May-23 00:30N 29°36' W 090°43'2 4.4
2018-May-23 00:01N 29°36' W 090°40'3 5.6
2018-May-22 23:31N 29°35' W 090°37'3 5.4
2018-May-22 23:00N 29°34' W 090°34'3 5.7
2018-May-22 22:30N 29°34' W 090°31'  
Track history (hours):
 
Tides and Currents Weather Stations Pressure Air Temp Water Temp Dewpoint Dewpoint Depression Visibility Wind Speed Wind Dir Waves Ship Positions

Dudley J. Settoon

Owner: Settoon Towing, LLC, Gibson, LA. More information available from US FCC via Universal Licensing System and Coast Guard Vessel Documentation Center.

Last reported at 2018-May-31 18:00 UTC. Time now 2018-Jul-20 06:50 UTC.
Position N 29°35' W 090°43'.
Warning: this ship's position is 49 days out of date.

Length 30 m; draft 5 m.

Type: Towing. MMSI: 366994890.

Date/timePositionNaut miles runAvg speedWind from/ knotsBaromVisibWave heightAir tempDewpointWater temp
2018-May-31 18:00N 29°35' W 090°43'0 0.0
2018-May-31 17:31N 29°35' W 090°43'0 0.0
2018-May-31 17:01N 29°35' W 090°43'0 0.0
2018-May-31 16:30N 29°35' W 090°43'0 0.0
2018-May-31 16:00N 29°35' W 090°43'0 0.0
2018-May-31 15:30N 29°35' W 090°43'0 0.0
2018-May-31 15:00N 29°35' W 090°43'0 0.0
2018-May-31 14:30N 29°35' W 090°43'0 0.0
2018-May-31 14:00N 29°35' W 090°43'0 0.0
2018-May-31 13:30N 29°35' W 090°43'0 0.0
2018-May-31 13:00N 29°35' W 090°43'0 0.0
2018-May-31 12:30N 29°35' W 090°43'0 0.0
2018-May-31 12:00N 29°35' W 090°43'0 0.2
2018-May-31 11:29N 29°35' W 090°43'0 0.0
2018-May-31 11:00N 29°35' W 090°43'0 0.0
2018-May-31 10:28N 29°35' W 090°43'0 0.0
2018-May-31 10:00N 29°35' W 090°43'0 0.0
2018-May-31 09:30N 29°35' W 090°43'0 0.0
2018-May-31 08:59N 29°35' W 090°43'0 0.0
2018-May-31 08:30N 29°35' W 090°43'0 0.0
2018-May-31 08:00N 29°35' W 090°43'0 0.0
2018-May-31 07:30N 29°35' W 090°43'0 0.0
2018-May-31 07:00N 29°35' W 090°43'0 0.0
2018-May-31 06:30N 29°35' W 090°43'0 0.0
2018-May-31 06:00N 29°35' W 090°43'0 0.0
2018-May-31 05:30N 29°35' W 090°43'0 0.0
2018-May-31 04:57N 29°35' W 090°43'0 0.0
2018-May-31 04:30N 29°35' W 090°43'0 0.0
2018-May-31 04:00N 29°35' W 090°43'0 0.0
2018-May-31 03:29N 29°35' W 090°43'0 0.0
2018-May-31 03:00N 29°35' W 090°43'0 0.0
2018-May-31 02:27N 29°35' W 090°43'0 0.0
2018-May-31 02:00N 29°35' W 090°43'2 3.4
2018-May-31 01:30N 29°37' W 090°43'2 4.9
2018-May-31 01:00N 29°36' W 090°40'3 5.6
2018-May-31 00:30N 29°35' W 090°37'3 5.5
2018-May-31 00:00N 29°34' W 090°34'3 5.6
2018-May-30 23:27N 29°34' W 090°30'5 0.2
2018-May-30 01:31N 29°33' W 090°24'0 0.2
2018-May-30 01:27N 29°33' W 090°24'1 2.5
2018-May-30 00:59N 29°33' W 090°26'3 7.2
2018-May-30 00:30N 29°34' W 090°30'4 7.0
2018-May-30 00:00N 29°34' W 090°34'3 6.6
2018-May-29 23:30N 29°35' W 090°37'3 5.7
2018-May-29 23:00N 29°36' W 090°40'2 4.4
2018-May-29 22:30N 29°36' W 090°43'2 3.5
2018-May-29 22:00N 29°34' W 090°43'3 6.0
2018-May-29 21:30N 29°32' W 090°46'3 6.2
2018-May-29 20:59N 29°32' W 090°50'11 0.8
2018-May-29 07:34N 29°37' W 091°01'0 5.9
2018-May-29 07:30N 29°37' W 091°01'5 5.8
2018-May-29 06:41N 29°34' W 090°57'2 6.3
2018-May-29 06:21N 29°33' W 090°55'2 6.2
2018-May-29 05:58N 29°32' W 090°52'3 6.1
2018-May-29 05:30N 29°32' W 090°49'2 3.4
2018-May-29 05:00N 29°31' W 090°47'4 3.7
2018-May-29 03:58N 29°27' W 090°49'2 4.1
2018-May-29 03:29N 29°26' W 090°50'7 3.9
2018-May-29 01:45N 29°22' W 090°57'3 0.6
2018-May-28 21:39N 29°23' W 090°54'0 0.0
2018-May-28 21:29N 29°23' W 090°54'2 3.1
2018-May-28 20:58N 29°24' W 090°52'2 3.1
2018-May-28 20:29N 29°24' W 090°51'1 1.2
2018-May-28 19:59N 29°25' W 090°50'2 3.9
2018-May-28 19:30N 29°27' W 090°50'4 4.3
2018-May-28 18:40N 29°30' W 090°48'1 4.2
2018-May-28 18:30N 29°30' W 090°48'2 3.6
2018-May-28 18:00N 29°32' W 090°48'61 1.4
2018-May-26 21:43N 29°51' W 091°55'1 6.2
2018-May-26 21:30N 29°51' W 091°56'3 5.9
2018-May-26 21:00N 29°50' W 091°60'0 0.1
2018-May-26 20:30N 29°50' W 091°59'0 0.0
2018-May-26 20:00N 29°50' W 091°59'0 0.0
2018-May-26 19:30N 29°50' W 091°59'0 0.0
2018-May-26 19:00N 29°50' W 091°59'0 0.0
2018-May-26 18:30N 29°50' W 091°59'0 0.0
2018-May-26 18:00N 29°50' W 091°59'0 0.0
2018-May-26 17:30N 29°50' W 091°59'0 0.0
2018-May-26 17:00N 29°50' W 091°59'0 0.0
2018-May-26 16:31N 29°50' W 091°59'0 0.0
2018-May-26 16:01N 29°50' W 091°59'0 0.0
2018-May-26 15:31N 29°50' W 091°59'0 0.0
2018-May-26 15:01N 29°50' W 091°59'0 0.0
2018-May-26 14:31N 29°50' W 091°59'0 0.0
2018-May-26 14:00N 29°50' W 091°59'0 0.0
2018-May-26 13:30N 29°50' W 091°59'0 0.0
2018-May-26 13:00N 29°50' W 091°59'0 0.0
2018-May-26 12:31N 29°50' W 091°59'0 0.0
2018-May-26 12:01N 29°50' W 091°59'0 0.0
2018-May-26 11:30N 29°50' W 091°59'0 0.0
2018-May-26 11:01N 29°50' W 091°59'0 0.0
2018-May-26 10:30N 29°50' W 091°59'0 0.0
2018-May-26 10:00N 29°50' W 091°59'0 0.0
2018-May-26 09:31N 29°50' W 091°59'0 0.0
2018-May-26 09:00N 29°50' W 091°59'0 0.0
2018-May-26 08:30N 29°50' W 091°59'0 0.0
2018-May-26 08:01N 29°50' W 091°59'0 0.0
2018-May-26 07:30N 29°50' W 091°59'0 0.0
2018-May-26 07:00N 29°50' W 091°59'0 0.0
2018-May-26 06:30N 29°50' W 091°59'0 0.0
2018-May-26 05:30N 29°50' W 091°59'0 0.0
2018-May-26 05:00N 29°50' W 091°59'0 0.0
2018-May-26 04:30N 29°50' W 091°59'0 0.0
2018-May-26 04:00N 29°50' W 091°59'0 0.0
2018-May-26 03:31N 29°50' W 091°59'0 0.0
2018-May-26 03:01N 29°50' W 091°59'0 0.0
2018-May-26 02:30N 29°50' W 091°59'0 0.0
2018-May-26 02:00N 29°50' W 091°59'0 0.0
2018-May-26 01:30N 29°50' W 091°59'0 0.0
2018-May-26 01:01N 29°50' W 091°59'0 0.0
2018-May-26 00:31N 29°50' W 091°59'0 0.9
2018-May-26 00:00N 29°50' W 091°59'  
2018-May-23 04:01N 29°36' W 090°58'0 5.9
2018-May-23 03:59N 29°36' W 090°58'3 5.7
2018-May-23 03:29N 29°34' W 090°56'3 6.0
2018-May-23 03:00N 29°32' W 090°53'3 5.7
2018-May-23 02:31N 29°32' W 090°50'3 5.9
2018-May-23 02:00N 29°32' W 090°46'3 5.3
2018-May-23 01:30N 29°34' W 090°44'1 2.5
2018-May-23 01:00N 29°35' W 090°43'1 2.5
2018-May-23 00:30N 29°36' W 090°43'2 4.4
2018-May-23 00:01N 29°36' W 090°40'3 5.6
2018-May-22 23:31N 29°35' W 090°37'3 5.4
2018-May-22 23:00N 29°34' W 090°34'3 5.7
2018-May-22 22:30N 29°34' W 090°31'  

Dump ship's entire track history